createdAt,value
2022-08-26T00:02:34.341Z,78.52
2022-08-26T00:07:34.165Z,78.06
2022-08-26T00:12:37.479Z,78.56
2022-08-26T00:17:34.175Z,78.25
2022-08-26T00:22:34.149Z,78.41
2022-08-26T00:27:34.164Z,79.24
2022-08-26T00:32:34.189Z,80.12
2022-08-26T00:37:34.243Z,82.09
2022-08-26T00:42:34.154Z,81.89
2022-08-26T00:47:34.216Z,81.28
2022-08-26T00:52:34.160Z,82.06
2022-08-26T00:57:34.216Z,82.33
2022-08-26T01:02:34.221Z,82.55
2022-08-26T01:07:34.901Z,83.28
2022-08-26T01:12:34.169Z,82.36
2022-08-26T01:17:34.282Z,82.13
2022-08-26T01:22:34.192Z,81.72
2022-08-26T01:27:34.225Z,82.40
2022-08-26T01:32:34.210Z,82.07
2022-08-26T01:37:34.239Z,82.73
2022-08-26T01:42:34.192Z,82.73
2022-08-26T01:47:34.419Z,83.60
2022-08-26T01:52:34.202Z,83.97
2022-08-26T01:57:34.239Z,83.22
2022-08-26T02:02:34.226Z,83.36
2022-08-26T02:07:34.223Z,83.86
2022-08-26T02:12:34.196Z,83.66
2022-08-26T02:17:34.258Z,83.85
2022-08-26T02:22:34.214Z,83.30
2022-08-26T02:27:34.230Z,83.98
2022-08-26T02:32:34.240Z,83.98
2022-08-26T02:37:34.236Z,84.38
2022-08-26T02:42:34.221Z,84.67
2022-08-26T02:47:34.273Z,84.26
2022-08-26T02:52:34.242Z,84.21
2022-08-26T02:57:34.271Z,84.21
2022-08-26T03:02:34.264Z,84.04
2022-08-26T03:07:34.296Z,85.28
2022-08-26T03:12:34.229Z,86.17
2022-08-26T03:17:34.310Z,78.49
2022-08-26T03:22:34.243Z,74.42
2022-08-26T03:27:34.280Z,73.10
2022-08-26T03:32:34.295Z,75.76
2022-08-26T03:37:34.294Z,75.73
2022-08-26T03:42:34.251Z,75.73
2022-08-26T03:47:34.325Z,83.18
2022-08-26T03:52:34.258Z,84.06
2022-08-26T03:57:34.287Z,85.72
2022-08-26T04:02:34.381Z,86.20
2022-08-26T04:07:34.307Z,87.92
2022-08-26T04:12:34.270Z,87.26
2022-08-26T04:17:34.331Z,86.98
2022-08-26T04:27:34.557Z,87.59
2022-08-26T04:32:34.359Z,87.59
2022-08-26T04:37:34.311Z,87.83
2022-08-26T04:42:34.361Z,87.51
2022-08-26T04:47:34.344Z,87.05
2022-08-26T04:52:34.290Z,86.73
2022-08-26T04:57:34.316Z,86.22
2022-08-26T05:02:34.337Z,86.05
2022-08-26T05:07:34.327Z,85.52
2022-08-26T05:12:34.302Z,85.03
2022-08-26T05:17:34.373Z,84.10
2022-08-26T05:22:34.308Z,81.62
2022-08-26T05:27:34.348Z,76.80
2022-08-26T05:32:34.340Z,73.93
2022-08-26T05:37:34.362Z,70.31
2022-08-26T05:42:34.385Z,69.66
2022-08-26T05:47:34.376Z,69.66
2022-08-26T05:52:34.316Z,67.69
2022-08-26T05:57:38.663Z,67.43
2022-08-26T06:02:34.516Z,66.65
2022-08-26T06:07:34.366Z,66.66
2022-08-26T06:12:34.322Z,67.56
2022-08-26T06:22:34.384Z,67.89
2022-08-26T06:27:34.358Z,69.15
2022-08-26T06:32:34.414Z,69.15
2022-08-26T06:37:34.389Z,69.00
2022-08-26T06:42:34.482Z,69.15
2022-08-26T06:47:34.348Z,69.06
2022-08-26T06:52:34.410Z,68.85
2022-08-26T06:57:34.890Z,68.46
2022-08-26T07:02:34.469Z,67.52
2022-08-26T07:07:34.404Z,66.16
2022-08-26T07:12:34.382Z,66.46
2022-08-26T07:17:34.363Z,64.19
2022-08-26T07:22:34.399Z,62.70
2022-08-26T07:27:34.381Z,58.32
2022-08-26T07:32:34.423Z,55.50
2022-08-26T07:37:35.650Z,55.77
2022-08-26T07:42:34.511Z,52.67
2022-08-26T07:47:34.381Z,54.25
2022-08-26T07:52:34.421Z,51.96
2022-08-26T08:02:34.439Z,50.88
2022-08-26T08:07:38.361Z,49.60
2022-08-26T08:12:34.415Z,44.63
2022-08-26T08:17:34.479Z,38.57
2022-08-26T08:22:34.436Z,37.55
2022-08-26T08:27:34.406Z,35.69
2022-08-26T08:32:34.467Z,33.13
2022-08-26T08:37:34.445Z,32.79
2022-08-26T08:42:34.461Z,33.16
2022-08-26T08:47:34.422Z,33.16
2022-08-26T08:52:34.460Z,31.62
2022-08-26T08:57:34.442Z,32.19
2022-08-26T09:02:34.596Z,32.19
2022-08-26T09:07:36.491Z,32.48
2022-08-26T09:12:34.543Z,32.85
2022-08-26T09:17:34.431Z,32.64
2022-08-26T09:22:34.473Z,33.07
2022-08-26T09:27:34.447Z,33.35
2022-08-26T09:32:34.490Z,33.35
2022-08-26T09:37:34.579Z,33.37
2022-08-26T09:42:35.895Z,33.69
2022-08-26T09:47:34.445Z,34.25
2022-08-26T09:52:34.521Z,34.25
2022-08-26T09:57:34.452Z,33.50
2022-08-26T10:02:34.530Z,35.13
2022-08-26T10:07:34.489Z,35.13
2022-08-26T10:12:34.498Z,35.82
2022-08-26T10:22:34.503Z,35.71
2022-08-26T10:27:34.475Z,35.64
2022-08-26T10:32:34.515Z,36.65
2022-08-26T10:37:34.609Z,36.47
2022-08-26T10:42:34.548Z,36.09
2022-08-26T10:47:34.511Z,35.57
2022-08-26T10:52:34.532Z,35.93
2022-08-26T10:57:34.496Z,36.54
2022-08-26T11:02:34.569Z,36.24
2022-08-26T11:12:34.541Z,34.67
2022-08-26T11:17:34.516Z,33.77
2022-08-26T11:22:34.559Z,35.05
2022-08-26T11:27:34.545Z,33.79
2022-08-26T11:32:34.574Z,34.45
2022-08-26T11:37:34.556Z,34.22
2022-08-26T11:42:34.557Z,33.91
2022-08-26T11:47:34.527Z,33.71
2022-08-26T11:52:34.579Z,33.71
2022-08-26T11:57:34.573Z,32.03
2022-08-26T12:02:34.596Z,27.54
2022-08-26T12:07:34.530Z,27.54
2022-08-26T12:12:35.221Z,23.33
2022-08-26T12:17:34.628Z,23.33
2022-08-26T12:22:34.599Z,24.06
2022-08-26T12:27:34.572Z,24.79
2022-08-26T12:32:34.633Z,23.58
2022-08-26T12:37:34.561Z,23.08
2022-08-26T12:42:34.633Z,23.08
2022-08-26T12:47:43.601Z,24.22
2022-08-26T12:52:34.654Z,26.75
2022-08-26T12:57:34.644Z,26.75
2022-08-26T13:02:34.705Z,24.08
2022-08-26T13:07:34.576Z,27.01
2022-08-26T13:12:34.658Z,28.14
2022-08-26T13:17:34.599Z,25.25
2022-08-26T13:22:34.718Z,25.25
2022-08-26T13:27:34.648Z,29.47
2022-08-26T13:32:34.635Z,30.71
2022-08-26T13:37:35.540Z,30.85
2022-08-26T13:42:34.710Z,30.85
2022-08-26T13:47:34.602Z,30.94
2022-08-26T13:52:34.671Z,30.80
2022-08-26T13:57:34.688Z,31.90
2022-08-26T14:02:34.657Z,27.98
2022-08-26T14:07:34.699Z,28.23
2022-08-26T14:12:34.677Z,29.54
2022-08-26T14:17:34.622Z,30.87
2022-08-26T14:22:37.819Z,30.90
2022-08-26T14:27:34.690Z,31.08
2022-08-26T14:32:34.682Z,31.36
2022-08-26T14:37:34.644Z,27.00
2022-08-26T14:42:34.686Z,29.42
2022-08-26T14:47:34.661Z,30.52
2022-08-26T14:52:34.708Z,30.24
2022-08-26T14:57:34.691Z,30.53
2022-08-26T15:02:34.788Z,30.53
2022-08-26T15:07:34.654Z,31.74
2022-08-26T15:12:34.696Z,32.09
2022-08-26T15:17:34.678Z,32.94
2022-08-26T15:22:34.700Z,33.68
2022-08-26T15:27:34.706Z,34.03
2022-08-26T15:32:34.693Z,34.75
2022-08-26T15:37:34.689Z,35.63
2022-08-26T15:42:34.822Z,36.57
2022-08-26T15:47:48.381Z,29.58
2022-08-26T15:52:34.736Z,28.36
2022-08-26T15:57:34.733Z,28.17
2022-08-26T16:02:34.738Z,33.47
2022-08-26T16:07:34.697Z,35.07
2022-08-26T16:12:34.727Z,35.07
2022-08-26T16:17:34.695Z,35.98
2022-08-26T16:22:34.842Z,38.83
2022-08-26T16:27:34.746Z,40.28
2022-08-26T16:32:34.755Z,40.28
2022-08-26T16:37:37.670Z,39.81
2022-08-26T16:42:34.782Z,39.81
2022-08-26T16:47:34.725Z,40.24
2022-08-26T16:57:34.751Z,41.91
2022-08-26T17:02:34.758Z,42.33
2022-08-26T17:07:34.780Z,42.74
2022-08-26T17:12:34.783Z,42.48
2022-08-26T17:17:34.772Z,43.04
2022-08-26T17:22:34.836Z,43.34
2022-08-26T17:27:34.798Z,43.54
2022-08-26T17:32:34.732Z,44.08
2022-08-26T17:37:34.763Z,44.76
2022-08-26T17:42:34.798Z,45.18
2022-08-26T17:47:34.760Z,45.18
2022-08-26T17:52:34.740Z,45.15
2022-08-26T17:57:40.549Z,46.10
2022-08-26T18:02:34.755Z,46.08
2022-08-26T18:07:39.042Z,46.11
2022-08-26T18:12:34.781Z,46.11
2022-08-26T18:17:34.897Z,47.13
2022-08-26T18:22:34.745Z,48.88
2022-08-26T18:27:34.804Z,49.41
2022-08-26T18:32:34.782Z,49.19
2022-08-26T18:37:34.791Z,49.71
2022-08-26T18:42:34.804Z,50.09
2022-08-26T18:47:34.822Z,50.59
2022-08-26T18:52:34.764Z,51.76
2022-08-26T18:57:34.821Z,51.73
2022-08-26T19:02:35.038Z,52.46
2022-08-26T19:07:39.426Z,53.06
2022-08-26T19:12:34.867Z,53.52
2022-08-26T19:17:35.000Z,55.78
2022-08-26T19:22:34.990Z,56.11
2022-08-26T19:27:35.018Z,56.44
2022-08-26T19:32:34.918Z,55.88
2022-08-26T19:37:34.898Z,55.34
2022-08-26T19:42:35.050Z,55.18
2022-08-26T19:47:35.012Z,54.72
2022-08-26T19:52:34.986Z,55.26
2022-08-26T19:57:35.039Z,54.85
2022-08-26T20:02:35.038Z,54.33
2022-08-26T20:07:35.083Z,55.17
2022-08-26T20:12:35.025Z,55.88
2022-08-26T20:17:35.075Z,55.88
2022-08-26T20:22:34.843Z,54.95
2022-08-26T20:27:38.445Z,55.68
2022-08-26T20:32:35.645Z,55.72
2022-08-26T20:37:34.995Z,55.50
2022-08-26T20:42:34.945Z,55.50
2022-08-26T20:47:34.905Z,56.62
2022-08-26T20:52:34.861Z,56.62
2022-08-26T20:57:34.988Z,56.78
2022-08-26T21:02:34.865Z,56.31
2022-08-26T21:07:34.932Z,57.42
2022-08-26T21:12:34.921Z,57.42
2022-08-26T21:17:34.959Z,58.67
2022-08-26T21:22:34.872Z,59.39
2022-08-26T21:27:34.917Z,58.82
2022-08-26T21:32:34.876Z,58.98
2022-08-26T21:37:34.916Z,58.98
2022-08-26T21:42:34.924Z,60.11
2022-08-26T21:47:35.015Z,60.15
2022-08-26T21:52:34.906Z,60.05
2022-08-26T21:57:35.038Z,60.85
2022-08-26T22:02:34.952Z,60.92
2022-08-26T22:07:34.950Z,61.70
2022-08-26T22:12:34.931Z,61.59
2022-08-26T22:17:34.954Z,62.71
2022-08-26T22:22:35.112Z,62.71
2022-08-26T22:27:34.960Z,64.30
2022-08-26T22:32:34.911Z,63.76
2022-08-26T22:37:35.131Z,63.76
2022-08-26T22:42:34.907Z,64.94
2022-08-26T22:47:34.946Z,66.12
2022-08-26T22:52:34.955Z,66.12
2022-08-26T22:57:34.950Z,60.83
2022-08-26T23:02:34.933Z,58.33
2022-08-26T23:07:34.976Z,60.46
2022-08-26T23:12:34.936Z,60.29
2022-08-26T23:17:34.970Z,60.46
2022-08-26T23:22:34.990Z,62.75
2022-08-26T23:27:34.999Z,61.04
2022-08-26T23:32:34.947Z,61.04
2022-08-26T23:37:35.017Z,61.10
2022-08-26T23:42:34.933Z,61.91
2022-08-26T23:47:34.988Z,61.91
2022-08-26T23:52:34.996Z,63.38
2022-08-26T23:57:34.974Z,64.79
